Skip Navigation LinksHome page > Weather > Current weather Skip Navigation Links

Current Weather

Ronald Reagan Washington National, Washington

For information only: do not use for flight planning or navigation.
Latest weather
Observation time Wednesday, April 16, 2014 5:52 AM EDT
Local time Wednesday, April 16, 2014 6:10 AM EDT
Flight conditions Visual Meteorological Conditions
Winds
Wind direction North-Northwest (330°)
Wind speed 15 mph
Visibility 10 mi.
Sky condition
Ceiling unlimited
Sky clear
Temperature 34°F
Dewpoint 15°F
Altimeter 30.26 in.Hg
Derived measurements
Relative humidity 45%
Wind chill 24°F
Density altitude -2033 ft.
Sea-level pressure 30.26 in.Hg
Remarks
System requires maintenance.
Automated weather observing station with precipitation discriminator.
METAR KDCA 160952Z 33013KT 10SM CLR 01/M09 A3026 RMK AO2 SLP246 T00111094 $

Settings

Location code

InnerDrive.Weather 4.0.4869.0 Release CLR 4.0.30319.18449
Copyright ©2013 Inner Drive Technology. All rights reserved. Portions Copyright ©1986-2013 David Braverman.

Find weather

Site navigation


Skip Navigation Links

Place info

Page info

PayPal - The safer, easier way to pay online!

Return home.

Copyright ©2014 Inner Drive Technology. Purveyors of fine, hand-crafted computer software. Page printed 2014-04-16T10:10:04 UTC.